This is the latest recevied weather packets stored in our database for station/object N4CRH-13. If no packets are shown the sender has not sent any weather packets the latest 10 day(s).
| Time | Temp. | Humidity | Pressure | Rain* | Wind** | Luminosity | Snow |
|---|---|---|---|---|---|---|---|
| 1777936969 | 13.89° C | 39% | 1288 hPa | 0 mm | - | 114 W/m² | - |
| 1777934848 | 16.11° C | 33% | 1287 hPa | 0 mm | - | 95 W/m² | - |
| 1777934546 | 16.11° C | 29% | 1287 hPa | 0 mm | - | 122 W/m² | - |
| 1777934242 | 16.11° C | 31% | 1287 hPa | 0 mm | - | 136 W/m² | - |
| 1777933635 | 16.11° C | 34% | 1287 hPa | 0 mm | - | 150 W/m² | - |
| 1777933029 | 16.11° C | 30% | 1287.3 hPa | 0 mm | - | 169 W/m² | - |
| 1777932726 | 16.67° C | 31% | 1286.9 hPa | 0 mm | - | 254 W/m² | - |
| 1777932422 | 16.67° C | 33% | 1287.2 hPa | 0 mm | - | 245 W/m² | - |
| 1777932120 | 16.11° C | 33% | 1286.9 hPa | 0 mm | - | 211 W/m² | - |
| 1777931816 | 16.11° C | 34% | 1287.2 hPa | 0 mm | - | 211 W/m² | - |
| 1777931514 | 16.67° C | 33% | 1287.3 hPa | 0 mm | - | 196 W/m² | - |
| 1777929692 | 16.67° C | 33% | 1287.3 hPa | 0 mm | - | 342 W/m² | - |
| 1777929390 | 17.22° C | 33% | 1287.3 hPa | 0 mm | - | 363 W/m² | - |
| 1777929086 | 18.33° C | 28% | 1287.2 hPa | 0 mm | - | 601 W/m² | - |
| 1777928784 | 18.89° C | 28% | 1287.2 hPa | 0 mm | - | 627 W/m² | - |
| 1777928480 | 17.78° C | 28% | 1287.3 hPa | 0 mm | - | 662 W/m² | - |
| 1777926663 | 16.67° C | 35% | 1287.6 hPa | 0 mm | - | 241 W/m² | - |
| 1777926055 | 16.11° C | 34% | 1287.5 hPa | 0 mm | - | 224 W/m² | - |
| 1777922721 | 17.78° C | 22% | 1287.3 hPa | 0 mm | - | 218 W/m² | - |
| 1777920902 | 17.22° C | 27% | 1287.4 hPa | 0 mm | - | 224 W/m² | - |
| 1777919687 | 18.33° C | 23% | 1287.8 hPa | 0 mm | - | 657 W/m² | - |
| 1777918475 | 18.33° C | 23% | 1288 hPa | 0 mm | - | 763 W/m² | - |
| 1777918174 | 18.33° C | 23% | 1287.9 hPa | 0 mm | - | 660 W/m² | - |
| 1777917873 | 18.33° C | 23% | 1288 hPa | 0 mm | - | 641 W/m² | - |
| 1777916360 | 18.33° C | 29% | 1288.6 hPa | 0 mm | - | 663 W/m² | - |
* Rain latest hour (hover to see other rain measurements)
** Current wind speed in m/s (hover to see current wind gust speed)